Time;durP1;ratioP1;P1;durP2;ratioP2;P2;SDS_P1;SDS_P2;PMS_P1;PMS_P2;Temp;Humidity;BMP_temperature;BMP_pressure;BME280_temperature;BME280_humidity;BME280_pressure;Samples;Min_cycle;Max_cycle;Signal;HPM_P1;HPM_P2
2021/07/18 00:00:20;;;;;;;;;;;13.40;99.90;;;;;;5094108;28;19923;-65
2021/07/18 00:02:47;;;;;;;;;;;13.50;99.30;;;;;;5093286;28;19954;-66
2021/07/18 00:05:14;;;;;;;;;;;13.50;99.50;;;;;;5093735;28;19915;-65
2021/07/18 00:07:40;;;;;;;;;;;13.50;99.60;;;;;;5093713;28;19934;-64
2021/07/18 00:10:07;;;;;;;;;;;13.50;99.20;;;;;;5093665;28;19908;-65
2021/07/18 00:12:34;;;;;;;;;;;13.50;99.20;;;;;;5093638;28;20008;-65
2021/07/18 00:15:00;;;;;;;;;;;13.50;99.40;;;;;;5093755;28;19915;-65
2021/07/18 00:17:27;;;;;;;;;;;13.60;99.10;;;;;;5093247;28;19915;-65
2021/07/18 00:19:54;;;;;;;;;;;13.60;98.70;;;;;;5093191;28;19918;-66
2021/07/18 00:22:20;;;;;;;;;;;13.70;98.70;;;;;;5093390;28;20316;-66
2021/07/18 00:24:47;;;;;;;;;;;13.70;98.70;;;;;;5093617;28;19908;-65
2021/07/18 00:27:14;;;;;;;;;;;13.70;98.40;;;;;;5093573;28;20385;-66
2021/07/18 00:29:43;;;;;;;;;;;13.80;98.20;;;;;;5093371;28;19952;-65
2021/07/18 00:32:10;;;;;;;;;;;13.80;98.10;;;;;;5092800;28;20321;-65
2021/07/18 00:34:37;;;;;;;;;;;13.80;98.30;;;;;;5092605;28;19916;-65
2021/07/18 00:37:04;;;;;;;;;;;14.00;98.20;;;;;;5093501;28;19943;-65
2021/07/18 00:39:30;;;;;;;;;;;14.00;98.10;;;;;;5093062;28;20381;-66
2021/07/18 00:41:57;;;;;;;;;;;14.10;98.80;;;;;;5093232;28;19956;-66
2021/07/18 00:44:24;;;;;;;;;;;14.10;98.10;;;;;;5093183;28;20335;-66
2021/07/18 00:46:50;;;;;;;;;;;14.10;98.20;;;;;;5092701;28;19908;-66
2021/07/18 00:49:17;;;;;;;;;;;14.10;97.70;;;;;;5092908;28;20355;-65
2021/07/18 00:51:44;;;;;;;;;;;14.10;97.80;;;;;;5092973;28;19916;-66
2021/07/18 00:54:10;;;;;;;;;;;14.20;98.40;;;;;;5092870;28;19977;-66
2021/07/18 00:56:38;;;;;;;;;;;14.20;98.40;;;;;;5093163;28;19908;-65
2021/07/18 00:59:05;;;;;;;;;;;14.30;96.90;;;;;;5108798;28;19961;-66
2021/07/18 01:01:32;;;;;;;;;;;14.40;97.10;;;;;;5091947;28;19919;-66
2021/07/18 01:03:59;;;;;;;;;;;14.40;97.40;;;;;;5092776;28;19914;-65
2021/07/18 01:06:26;;;;;;;;;;;14.50;96.90;;;;;;5092998;28;19908;-66
2021/07/18 01:08:53;;;;;;;;;;;14.60;97.30;;;;;;5092825;28;19955;-66
2021/07/18 01:11:20;;;;;;;;;;;14.80;96.70;;;;;;5092889;28;20413;-66
2021/07/18 01:13:46;;;;;;;;;;;15.10;96.80;;;;;;5092489;28;20342;-66
2021/07/18 01:16:13;;;;;;;;;;;15.40;95.40;;;;;;5092688;28;20334;-65
2021/07/18 01:18:40;;;;;;;;;;;15.80;93.50;;;;;;5092158;28;19915;-65
2021/07/18 01:21:07;;;;;;;;;;;16.00;93.40;;;;;;5092638;28;19913;-66
2021/07/18 01:23:36;;;;;;;;;;;16.00;93.00;;;;;;5092538;28;19912;-66
2021/07/18 01:26:02;;;;;;;;;;;16.10;93.30;;;;;;5092623;28;20397;-65
2021/07/18 01:28:29;;;;;;;;;;;16.30;92.50;;;;;;5092385;28;19908;-66
2021/07/18 01:30:56;;;;;;;;;;;16.30;91.60;;;;;;5092724;28;19965;-65
2021/07/18 01:33:22;;;;;;;;;;;16.20;91.60;;;;;;5091733;28;20293;-65
2021/07/18 01:35:49;;;;;;;;;;;15.90;92.10;;;;;;5092165;28;19912;-65
2021/07/18 01:38:16;;;;;;;;;;;15.80;93.30;;;;;;5092557;28;19966;-65
2021/07/18 01:40:42;;;;;;;;;;;15.70;91.90;;;;;;5092523;28;19912;-66
2021/07/18 01:43:09;;;;;;;;;;;15.70;91.70;;;;;;5092261;28;19916;-65
2021/07/18 01:45:36;;;;;;;;;;;15.60;91.90;;;;;;5093673;28;19915;-65
2021/07/18 01:48:03;;;;;;;;;;;15.60;92.20;;;;;;5095847;28;19919;-65
2021/07/18 01:50:31;;;;;;;;;;;15.60;92.50;;;;;;5096603;28;20363;-66
2021/07/18 01:52:59;;;;;;;;;;;15.70;92.60;;;;;;5096371;28;19963;-68
2021/07/18 01:55:25;;;;;;;;;;;15.60;92.50;;;;;;5096543;28;20352;-65
2021/07/18 01:57:52;;;;;;;;;;;15.60;92.20;;;;;;5096212;28;19919;-65
2021/07/18 02:00:19;;;;;;;;;;;15.70;92.10;;;;;;5096465;28;19912;-65
2021/07/18 02:02:50;;;;;;;;;;;15.70;91.80;;;;;;5095720;28;19954;-65
2021/07/18 02:05:17;;;;;;;;;;;15.80;91.70;;;;;;5096401;28;19908;-67
2021/07/18 02:07:44;;;;;;;;;;;15.80;90.90;;;;;;5095961;28;19985;-66
2021/07/18 02:10:11;;;;;;;;;;;15.80;91.20;;;;;;5096287;28;19927;-65
2021/07/18 02:12:38;;;;;;;;;;;15.70;91.20;;;;;;5096243;28;19916;-65
2021/07/18 02:15:06;;;;;;;;;;;15.70;91.40;;;;;;5095993;28;19931;-65
2021/07/18 02:17:33;;;;;;;;;;;15.70;91.60;;;;;;5095162;28;20351;-66
2021/07/18 02:19:59;;;;;;;;;;;15.70;91.40;;;;;;5095970;28;20272;-66
2021/07/18 02:22:32;;;;;;;;;;;15.70;91.30;;;;;;5095989;28;19963;-65
2021/07/18 02:24:58;;;;;;;;;;;15.70;91.40;;;;;;5095860;28;19908;-66
2021/07/18 02:27:25;;;;;;;;;;;15.70;90.30;;;;;;5095991;28;19909;-66
2021/07/18 02:29:52;;;;;;;;;;;15.80;90.40;;;;;;5095687;28;19919;-67
2021/07/18 02:32:18;;;;;;;;;;;15.90;90.30;;;;;;5094845;28;20239;-65
2021/07/18 02:34:45;;;;;;;;;;;15.90;90.60;;;;;;5095704;28;20324;-65
2021/07/18 02:37:11;;;;;;;;;;;15.90;91.10;;;;;;5095751;28;19908;-65
2021/07/18 02:39:38;;;;;;;;;;;15.90;91.40;;;;;;5095475;28;19915;-64
2021/07/18 02:42:06;;;;;;;;;;;15.90;90.20;;;;;;5095775;28;19915;-65
2021/07/18 02:44:33;;;;;;;;;;;16.00;90.40;;;;;;5095405;28;19924;-64
2021/07/18 02:46:59;;;;;;;;;;;16.00;91.10;;;;;;5094816;28;19908;-64
2021/07/18 02:49:26;;;;;;;;;;;16.00;90.50;;;;;;5095685;28;19914;-65
2021/07/18 02:51:52;;;;;;;;;;;16.00;90.20;;;;;;5095158;28;19912;-65
2021/07/18 02:54:20;;;;;;;;;;;15.90;90.20;;;;;;5095378;28;19924;-63
2021/07/18 02:56:46;;;;;;;;;;;15.90;88.60;;;;;;5094599;28;19916;-65
2021/07/18 02:59:13;;;;;;;;;;;15.90;90.20;;;;;;5094091;28;19908;-63
2021/07/18 03:01:40;;;;;;;;;;;15.90;90.10;;;;;;5094467;28;19908;-63
2021/07/18 03:04:06;;;;;;;;;;;16.00;90.00;;;;;;5095212;28;20351;-65
2021/07/18 03:06:33;;;;;;;;;;;15.90;90.50;;;;;;5095142;28;20060;-65
2021/07/18 03:08:59;;;;;;;;;;;15.90;90.30;;;;;;5095244;28;19908;-63
2021/07/18 03:11:26;;;;;;;;;;;15.80;89.60;;;;;;5095019;28;19909;-65
2021/07/18 03:13:53;;;;;;;;;;;15.80;90.30;;;;;;5094780;28;19916;-65
2021/07/18 03:16:19;;;;;;;;;;;16.00;90.40;;;;;;5094494;28;19915;-65
2021/07/18 03:18:46;;;;;;;;;;;16.10;89.50;;;;;;5094721;28;19935;-65
2021/07/18 03:21:13;;;;;;;;;;;16.20;89.90;;;;;;5094760;28;19969;-66
2021/07/18 03:23:39;;;;;;;;;;;16.20;90.40;;;;;;5094581;28;20007;-66
2021/07/18 03:26:06;;;;;;;;;;;16.10;90.70;;;;;;5094662;28;20377;-65
2021/07/18 03:28:33;;;;;;;;;;;16.10;90.30;;;;;;5094811;28;19932;-65
2021/07/18 03:31:00;;;;;;;;;;;16.10;90.50;;;;;;5094309;28;19908;-66
2021/07/18 03:33:26;;;;;;;;;;;16.00;90.90;;;;;;5094322;28;20840;-65
2021/07/18 03:35:53;;;;;;;;;;;16.10;90.70;;;;;;5094066;28;19908;-65
2021/07/18 03:38:20;;;;;;;;;;;16.10;89.90;;;;;;5094676;28;19947;-65
2021/07/18 03:40:46;;;;;;;;;;;16.20;90.10;;;;;;5094483;28;19908;-65
2021/07/18 03:43:13;;;;;;;;;;;16.20;90.60;;;;;;5094277;28;20439;-65
2021/07/18 03:45:40;;;;;;;;;;;16.20;90.20;;;;;;5094033;28;19915;-65
2021/07/18 03:48:07;;;;;;;;;;;16.20;90.10;;;;;;5094324;28;19908;-65
2021/07/18 03:50:33;;;;;;;;;;;16.30;88.90;;;;;;5094332;28;19908;-66
2021/07/18 03:53:00;;;;;;;;;;;16.30;88.00;;;;;;5094005;28;20018;-65
2021/07/18 03:55:27;;;;;;;;;;;16.30;88.00;;;;;;5094113;28;19908;-66
2021/07/18 03:57:53;;;;;;;;;;;16.40;88.70;;;;;;5093960;28;19942;-65
2021/07/18 04:00:21;;;;;;;;;;;16.30;89.10;;;;;;5094122;28;19915;-65
2021/07/18 04:02:47;;;;;;;;;;;16.30;89.00;;;;;;5093841;28;20003;-65
2021/07/18 04:05:14;;;;;;;;;;;16.20;89.50;;;;;;5093937;28;19915;-65
2021/07/18 04:07:41;;;;;;;;;;;16.30;87.80;;;;;;5093762;28;19943;-65
2021/07/18 04:10:08;;;;;;;;;;;16.30;88.10;;;;;;5092863;28;19909;-65
2021/07/18 04:12:34;;;;;;;;;;;16.20;89.40;;;;;;5093913;28;19912;-66
2021/07/18 04:15:01;;;;;;;;;;;16.20;90.00;;;;;;5093781;28;20282;-65
2021/07/18 04:17:27;;;;;;;;;;;16.10;88.50;;;;;;5093451;28;19918;-65
2021/07/18 04:19:54;;;;;;;;;;;16.20;87.90;;;;;;5093556;28;20366;-65
2021/07/18 04:22:21;;;;;;;;;;;16.20;89.40;;;;;;5093634;28;19908;-65
2021/07/18 04:24:48;;;;;;;;;;;16.20;89.40;;;;;;5093594;28;19908;-65
2021/07/18 04:27:14;;;;;;;;;;;16.20;88.30;;;;;;5093781;28;19908;-66
2021/07/18 04:29:41;;;;;;;;;;;16.20;87.60;;;;;;5093435;28;19908;-65
2021/07/18 04:32:08;;;;;;;;;;;16.30;87.90;;;;;;5093166;28;19908;-65
2021/07/18 04:34:34;;;;;;;;;;;16.30;88.40;;;;;;5093311;28;20422;-65
2021/07/18 04:37:01;;;;;;;;;;;16.40;87.10;;;;;;5093432;28;19934;-66
2021/07/18 04:39:28;;;;;;;;;;;16.50;88.90;;;;;;5093856;28;20243;-66
2021/07/18 04:41:55;;;;;;;;;;;16.50;85.20;;;;;;5093508;28;19915;-66
2021/07/18 04:44:22;;;;;;;;;;;16.40;89.10;;;;;;5093286;28;20476;-65
2021/07/18 04:46:50;;;;;;;;;;;16.50;85.90;;;;;;5093779;28;19915;-66
2021/07/18 04:49:16;;;;;;;;;;;16.60;85.00;;;;;;5093458;28;19909;-64
2021/07/18 04:51:43;;;;;;;;;;;16.60;83.90;;;;;;5092748;28;19908;-65
2021/07/18 04:54:10;;;;;;;;;;;16.50;86.10;;;;;;5093264;28;20007;-66
2021/07/18 04:56:36;;;;;;;;;;;16.40;86.40;;;;;;5091990;28;20385;-66
2021/07/18 04:59:03;;;;;;;;;;;16.50;85.10;;;;;;5093278;28;19908;-65
2021/07/18 05:01:29;;;;;;;;;;;16.50;83.40;;;;;;5092821;28;20010;-65
2021/07/18 05:03:56;;;;;;;;;;;16.50;84.30;;;;;;5092896;28;19908;-66
2021/07/18 05:06:23;;;;;;;;;;;16.50;83.80;;;;;;5092991;28;19909;-65
2021/07/18 05:08:49;;;;;;;;;;;16.50;84.90;;;;;;5093080;28;19908;-67
2021/07/18 05:11:19;;;;;;;;;;;16.50;85.80;;;;;;5093064;28;19909;-67
2021/07/18 05:13:46;;;;;;;;;;;16.50;84.90;;;;;;5092535;28;20018;-67
2021/07/18 05:16:13;;;;;;;;;;;16.40;85.30;;;;;;5092681;28;19919;-66
2021/07/18 05:18:39;;;;;;;;;;;16.40;85.50;;;;;;5092718;28;19909;-65
2021/07/18 05:21:06;;;;;;;;;;;16.40;86.30;;;;;;5092482;28;20289;-66
2021/07/18 05:23:33;;;;;;;;;;;16.40;85.50;;;;;;5092588;28;19934;-65
2021/07/18 05:25:59;;;;;;;;;;;16.30;86.20;;;;;;5092733;28;19915;-67
2021/07/18 05:28:26;;;;;;;;;;;16.20;85.70;;;;;;5092860;28;20534;-65
2021/07/18 05:30:56;;;;;;;;;;;16.20;86.20;;;;;;5090511;28;19931;-66
2021/07/18 05:33:22;;;;;;;;;;;16.20;85.90;;;;;;5072758;28;19920;-66
2021/07/18 05:35:52;;;;;;;;;;;16.10;86.70;;;;;;5072166;28;19919;-66
2021/07/18 05:38:18;;;;;;;;;;;16.10;86.60;;;;;;5072323;28;19908;-67
2021/07/18 05:40:45;;;;;;;;;;;16.10;84.80;;;;;;5072193;28;19916;-68
2021/07/18 05:43:12;;;;;;;;;;;16.10;85.10;;;;;;5071459;28;19920;-67
2021/07/18 05:45:38;;;;;;;;;;;16.10;86.30;;;;;;5071822;28;19915;-65
2021/07/18 05:48:05;;;;;;;;;;;16.10;86.90;;;;;;5072224;28;19914;-67
2021/07/18 05:50:32;;;;;;;;;;;16.10;86.30;;;;;;5072147;28;19909;-65
2021/07/18 05:52:58;;;;;;;;;;;16.10;85.80;;;;;;5072025;28;19987;-65
2021/07/18 05:55:25;;;;;;;;;;;16.00;86.10;;;;;;5071907;28;19919;-65
2021/07/18 05:57:53;;;;;;;;;;;16.00;84.70;;;;;;5071182;28;19909;-65
2021/07/18 06:00:20;;;;;;;;;;;16.00;84.80;;;;;;5071710;28;19908;-65
2021/07/18 06:02:47;;;;;;;;;;;16.00;84.50;;;;;;5071735;28;19908;-65
2021/07/18 06:05:14;;;;;;;;;;;16.00;85.10;;;;;;5072024;28;19909;-66
2021/07/18 06:07:40;;;;;;;;;;;16.00;85.00;;;;;;5071457;28;19977;-65
2021/07/18 06:10:08;;;;;;;;;;;16.00;85.00;;;;;;5072052;28;20275;-66
2021/07/18 06:12:35;;;;;;;;;;;15.90;85.80;;;;;;5071321;28;19934;-64
2021/07/18 06:15:02;;;;;;;;;;;15.90;84.70;;;;;;5072085;28;19909;-64
2021/07/18 06:17:29;;;;;;;;;;;15.90;85.00;;;;;;5071852;28;19908;-65
2021/07/18 06:19:55;;;;;;;;;;;15.90;85.20;;;;;;5071816;28;19909;-66
2021/07/18 06:22:22;;;;;;;;;;;15.80;85.00;;;;;;5071858;28;20387;-65
2021/07/18 06:24:48;;;;;;;;;;;15.80;82.80;;;;;;5074801;28;19909;-64
2021/07/18 06:27:15;;;;;;;;;;;15.70;82.60;;;;;;5071300;28;20339;-65
2021/07/18 06:29:42;;;;;;;;;;;15.70;82.80;;;;;;5071979;28;19912;-65
2021/07/18 06:32:09;;;;;;;;;;;15.60;82.40;;;;;;5072196;28;19909;-64
2021/07/18 06:34:35;;;;;;;;;;;15.60;82.60;;;;;;5075762;28;20016;-65
2021/07/18 06:37:02;;;;;;;;;;;15.50;83.40;;;;;;5075691;28;19985;-65
2021/07/18 06:39:29;;;;;;;;;;;15.50;83.50;;;;;;5075499;28;20411;-65
2021/07/18 06:41:55;;;;;;;;;;;15.50;82.80;;;;;;5074986;28;19970;-64
2021/07/18 06:44:22;;;;;;;;;;;15.40;82.30;;;;;;5075258;28;20063;-65
2021/07/18 06:46:49;;;;;;;;;;;15.40;83.60;;;;;;5075290;28;20381;-65
2021/07/18 06:49:15;;;;;;;;;;;15.40;82.90;;;;;;5075283;28;19908;-64
2021/07/18 06:51:42;;;;;;;;;;;15.30;82.10;;;;;;5074843;28;19944;-64
2021/07/18 06:54:08;;;;;;;;;;;15.40;81.60;;;;;;5075342;28;19920;-65
2021/07/18 06:56:35;;;;;;;;;;;15.30;81.60;;;;;;5074673;28;19913;-65
2021/07/18 06:59:02;;;;;;;;;;;15.30;81.90;;;;;;5075150;28;19908;-64
2021/07/18 07:01:29;;;;;;;;;;;15.30;82.40;;;;;;5074956;28;19955;-65
2021/07/18 07:03:55;;;;;;;;;;;15.30;83.00;;;;;;5074804;28;19948;-66
2021/07/18 07:06:22;;;;;;;;;;;15.20;82.80;;;;;;5074740;28;20276;-66
2021/07/18 07:08:49;;;;;;;;;;;15.10;83.20;;;;;;5074840;28;19955;-65
2021/07/18 07:11:16;;;;;;;;;;;15.10;83.90;;;;;;5074194;28;19920;-66
2021/07/18 07:13:43;;;;;;;;;;;15.10;84.60;;;;;;5074379;28;19928;-66
2021/07/18 07:16:09;;;;;;;;;;;15.00;84.20;;;;;;5074655;28;19909;-65
2021/07/18 07:18:36;;;;;;;;;;;15.00;84.70;;;;;;5074664;28;19966;-65
2021/07/18 07:21:02;;;;;;;;;;;14.90;84.50;;;;;;5074656;28;19912;-65
2021/07/18 07:23:30;;;;;;;;;;;14.90;84.20;;;;;;5074540;28;19936;-66
2021/07/18 07:25:59;;;;;;;;;;;14.90;83.90;;;;;;5074551;28;19978;-65
2021/07/18 07:28:26;;;;;;;;;;;14.80;84.90;;;;;;5074563;28;20343;-65
2021/07/18 07:30:53;;;;;;;;;;;14.70;84.30;;;;;;5074165;28;19909;-65
2021/07/18 07:33:20;;;;;;;;;;;14.70;86.00;;;;;;5074232;28;20260;-65
2021/07/18 07:35:46;;;;;;;;;;;14.60;85.50;;;;;;5074410;28;19987;-66
2021/07/18 07:38:13;;;;;;;;;;;14.60;85.10;;;;;;5074412;28;20002;-65
2021/07/18 07:40:40;;;;;;;;;;;14.60;85.70;;;;;;5074419;28;19921;-66
2021/07/18 07:43:07;;;;;;;;;;;14.60;86.30;;;;;;5074051;28;20305;-66
2021/07/18 07:45:33;;;;;;;;;;;14.50;86.00;;;;;;5073810;28;19908;-67
2021/07/18 07:48:00;;;;;;;;;;;14.40;87.00;;;;;;5074281;28;20259;-65
2021/07/18 07:50:27;;;;;;;;;;;14.40;86.90;;;;;;5074219;28;19966;-65
2021/07/18 07:52:53;;;;;;;;;;;14.40;87.40;;;;;;5073952;28;19916;-65
2021/07/18 07:55:20;;;;;;;;;;;14.30;87.00;;;;;;5074161;28;19923;-65
2021/07/18 07:57:47;;;;;;;;;;;14.40;87.80;;;;;;5073777;28;20359;-64
2021/07/18 08:00:15;;;;;;;;;;;14.30;87.50;;;;;;5074032;28;19912;-65
2021/07/18 08:02:42;;;;;;;;;;;14.30;87.50;;;;;;5073975;28;19912;-65
2021/07/18 08:05:09;;;;;;;;;;;14.20;87.40;;;;;;5073798;28;19908;-64
2021/07/18 08:07:36;;;;;;;;;;;14.30;88.00;;;;;;5073932;28;20275;-65
2021/07/18 08:10:05;;;;;;;;;;;14.20;88.20;;;;;;5073554;28;19919;-64
2021/07/18 08:12:31;;;;;;;;;;;14.20;88.20;;;;;;5073463;28;20359;-64
2021/07/18 08:14:58;;;;;;;;;;;14.20;88.60;;;;;;5073504;28;19916;-65
2021/07/18 08:17:24;;;;;;;;;;;14.20;89.30;;;;;;5073713;28;19954;-65
2021/07/18 08:19:51;;;;;;;;;;;14.10;89.30;;;;;;5073436;28;19978;-64
2021/07/18 08:22:18;;;;;;;;;;;14.10;89.20;;;;;;5073554;28;20034;-65
2021/07/18 08:24:44;;;;;;;;;;;14.00;89.70;;;;;;5073513;28;19913;-66
2021/07/18 08:27:11;;;;;;;;;;;14.00;89.80;;;;;;5073220;28;19909;-66
2021/07/18 08:29:38;;;;;;;;;;;14.00;90.20;;;;;;5073088;28;20355;-65
2021/07/18 08:32:05;;;;;;;;;;;14.00;90.80;;;;;;5073459;28;19908;-64
2021/07/18 08:34:32;;;;;;;;;;;13.90;90.10;;;;;;5073292;28;19967;-65
2021/07/18 08:36:58;;;;;;;;;;;13.90;90.20;;;;;;5073376;28;19908;-66
2021/07/18 08:39:25;;;;;;;;;;;13.90;90.50;;;;;;5073132;28;19909;-65
2021/07/18 08:41:54;;;;;;;;;;;13.80;90.30;;;;;;5072890;28;20067;-64
2021/07/18 08:44:23;;;;;;;;;;;13.80;90.40;;;;;;5072872;28;19942;-65
2021/07/18 08:46:50;;;;;;;;;;;13.80;90.80;;;;;;5073017;28;19912;-66
2021/07/18 08:49:17;;;;;;;;;;;13.70;90.90;;;;;;5073037;28;19913;-65
2021/07/18 08:51:43;;;;;;;;;;;13.70;90.90;;;;;;5072803;28;19922;-65
2021/07/18 08:54:10;;;;;;;;;;;13.70;91.00;;;;;;5072838;28;19916;-65
2021/07/18 08:56:37;;;;;;;;;;;13.60;91.00;;;;;;5072318;28;19970;-65
2021/07/18 08:59:05;;;;;;;;;;;13.60;91.40;;;;;;5105653;28;19953;-66
2021/07/18 09:01:33;;;;;;;;;;;13.60;91.50;;;;;;5072722;28;19955;-64
2021/07/18 09:04:00;;;;;;;;;;;13.50;91.40;;;;;;5072876;28;20385;-65
2021/07/18 09:06:46;;;;;;;;;;;13.50;91.60;;;;;;5072725;28;20298;-65
2021/07/18 09:09:14;;;;;;;;;;;13.50;91.60;;;;;;5072520;28;19962;-65
2021/07/18 09:11:41;;;;;;;;;;;13.40;92.00;;;;;;5072456;28;20305;-66
2021/07/18 09:14:08;;;;;;;;;;;13.40;91.90;;;;;;5072529;28;19923;-65
2021/07/18 09:16:36;;;;;;;;;;;13.30;92.20;;;;;;5072449;28;19909;-65
2021/07/18 09:19:20;;;;;;;;;;;13.30;92.10;;;;;;5072565;28;19966;-65
2021/07/18 09:22:06;;;;;;;;;;;13.30;92.50;;;;;;5072359;28;20359;-66
2021/07/18 09:24:43;;;;;;;;;;;13.30;92.20;;;;;;5072615;28;20329;-64
2021/07/18 09:27:22;;;;;;;;;;;13.20;92.50;;;;;;5072527;28;19909;-64
2021/07/18 09:29:51;;;;;;;;;;;13.20;93.00;;;;;;5071948;28;19916;-65
2021/07/18 09:32:21;;;;;;;;;;;13.20;93.30;;;;;;5072556;28;19913;-64
2021/07/18 09:34:49;;;;;;;;;;;13.10;93.30;;;;;;5072285;28;19942;-65
2021/07/18 09:37:16;;;;;;;;;;;13.10;93.50;;;;;;5072535;28;19912;-65
2021/07/18 09:39:47;;;;;;;;;;;13.10;93.70;;;;;;5072138;28;19920;-66
2021/07/18 09:42:25;;;;;;;;;;;13.00;94.00;;;;;;5072187;28;19916;-65
2021/07/18 09:44:52;;;;;;;;;;;13.00;94.00;;;;;;5072087;28;19928;-65
2021/07/18 09:47:18;;;;;;;;;;;13.00;94.60;;;;;;5072218;28;19909;-65
2021/07/18 09:49:45;;;;;;;;;;;13.00;93.90;;;;;;5072109;28;20235;-65
2021/07/18 09:52:17;;;;;;;;;;;13.00;94.10;;;;;;5072453;28;19909;-64
2021/07/18 09:54:44;;;;;;;;;;;13.00;94.20;;;;;;5072056;28;19924;-64
2021/07/18 09:57:26;;;;;;;;;;;13.00;94.50;;;;;;5072146;28;19909;-64
2021/07/18 09:59:53;;;;;;;;;;;13.00;95.40;;;;;;5071952;28;19995;-64
2021/07/18 10:02:26;;;;;;;;;;;13.00;94.70;;;;;;5071444;28;19915;-64
2021/07/18 10:04:54;;;;;;;;;;;12.90;94.90;;;;;;5072180;28;20327;-64
2021/07/18 10:07:22;;;;;;;;;;;12.90;94.60;;;;;;5072993;28;19909;-64
2021/07/18 10:09:50;;;;;;;;;;;12.90;94.80;;;;;;5075818;28;19961;-65
2021/07/18 10:12:16;;;;;;;;;;;12.90;94.80;;;;;;5076146;28;19908;-64
2021/07/18 10:14:43;;;;;;;;;;;12.90;95.30;;;;;;5075875;28;19956;-65
2021/07/18 10:17:11;;;;;;;;;;;12.90;95.50;;;;;;5075361;28;20240;-64
2021/07/18 10:19:37;;;;;;;;;;;12.90;95.30;;;;;;5075479;28;19977;-64
2021/07/18 10:22:05;;;;;;;;;;;12.90;95.30;;;;;;5075867;28;19908;-64
2021/07/18 10:24:32;;;;;;;;;;;12.90;95.30;;;;;;5075806;28;19961;-64
2021/07/18 10:27:02;;;;;;;;;;;12.80;96.10;;;;;;5075643;28;19908;-64
2021/07/18 10:29:32;;;;;;;;;;;12.80;95.20;;;;;;5075527;28;19950;-64
2021/07/18 10:32:02;;;;;;;;;;;12.80;95.30;;;;;;5075016;28;19962;-64
2021/07/18 10:34:29;;;;;;;;;;;12.80;94.90;;;;;;5075505;28;19920;-65
2021/07/18 10:36:56;;;;;;;;;;;12.70;95.00;;;;;;5075562;28;20271;-65
2021/07/18 10:39:30;;;;;;;;;;;12.70;95.40;;;;;;5075541;28;20371;-65
2021/07/18 10:42:01;;;;;;;;;;;12.70;95.90;;;;;;5075343;28;19909;-65
2021/07/18 10:44:39;;;;;;;;;;;12.60;95.40;;;;;;5075147;28;19927;-67
2021/07/18 10:47:05;;;;;;;;;;;12.60;95.50;;;;;;5074890;28;19915;-67
2021/07/18 10:49:50;;;;;;;;;;;12.70;96.30;;;;;;5074977;28;19954;-65
2021/07/18 10:52:17;;;;;;;;;;;12.70;96.40;;;;;;5075407;28;19914;-65
2021/07/18 10:54:44;;;;;;;;;;;12.60;95.90;;;;;;5075182;28;20839;-65
2021/07/18 10:57:21;;;;;;;;;;;12.60;96.20;;;;;;5075152;28;19996;-64
2021/07/18 10:59:48;;;;;;;;;;;12.60;95.90;;;;;;5074879;28;19969;-64
2021/07/18 11:02:18;;;;;;;;;;;12.60;96.40;;;;;;5074669;28;19931;-64
2021/07/18 11:04:52;;;;;;;;;;;12.60;96.60;;;;;;5074923;28;20003;-64
2021/07/18 11:07:21;;;;;;;;;;;12.60;96.40;;;;;;5074968;28;20275;-65
2021/07/18 11:09:50;;;;;;;;;;;12.60;95.90;;;;;;5074742;28;19951;-65
2021/07/18 11:12:23;;;;;;;;;;;12.50;96.40;;;;;;5074830;28;19962;-65
2021/07/18 11:14:49;;;;;;;;;;;12.50;96.50;;;;;;5074717;28;19916;-65
2021/07/18 11:17:26;;;;;;;;;;;12.50;96.40;;;;;;5074221;28;20289;-65
2021/07/18 11:19:57;;;;;;;;;;;12.50;96.70;;;;;;5074051;28;19920;-66
2021/07/18 11:22:42;;;;;;;;;;;12.50;96.80;;;;;;5074686;28;19915;-65
2021/07/18 11:25:08;;;;;;;;;;;12.50;96.80;;;;;;5074250;28;19909;-65
2021/07/18 11:27:45;;;;;;;;;;;12.40;96.90;;;;;;5074512;28;20385;-64
2021/07/18 11:30:30;;;;;;;;;;;12.40;96.80;;;;;;5074368;28;19955;-65
2021/07/18 11:32:56;;;;;;;;;;;12.30;96.80;;;;;;5074060;28;19912;-64
2021/07/18 11:35:23;;;;;;;;;;;12.20;97.20;;;;;;5074407;28;19955;-65
2021/07/18 11:37:49;;;;;;;;;;;12.20;97.20;;;;;;5074174;28;19919;-65
2021/07/18 11:40:16;;;;;;;;;;;12.20;97.40;;;;;;5074501;28;19915;-65
2021/07/18 11:42:43;;;;;;;;;;;12.20;97.30;;;;;;5074199;28;20270;-65
2021/07/18 11:45:11;;;;;;;;;;;12.10;97.50;;;;;;5074361;28;19944;-65
2021/07/18 11:47:38;;;;;;;;;;;12.10;97.50;;;;;;5073505;28;20279;-64
2021/07/18 11:50:08;;;;;;;;;;;12.10;97.70;;;;;;5074298;28;20371;-64
2021/07/18 11:52:40;;;;;;;;;;;12.10;98.00;;;;;;5074161;28;19909;-64
2021/07/18 11:55:07;;;;;;;;;;;12.10;97.90;;;;;;5074106;28;20003;-64
2021/07/18 11:57:34;;;;;;;;;;;12.00;98.00;;;;;;5073862;28;19916;-64
2021/07/18 12:00:01;;;;;;;;;;;12.00;98.10;;;;;;5073772;28;19912;-64
2021/07/18 12:02:28;;;;;;;;;;;12.00;97.80;;;;;;5073951;28;19908;-64
2021/07/18 12:05:03;;;;;;;;;;;12.00;98.40;;;;;;5073786;28;20114;-64
2021/07/18 12:07:30;;;;;;;;;;;12.00;98.40;;;;;;5073622;28;19909;-65
2021/07/18 12:09:56;;;;;;;;;;;12.00;98.70;;;;;;5073617;28;19913;-65
2021/07/18 12:12:23;;;;;;;;;;;12.00;98.90;;;;;;5073591;28;19909;-64
2021/07/18 12:14:53;;;;;;;;;;;12.00;98.90;;;;;;5073663;28;20011;-65
2021/07/18 12:17:20;;;;;;;;;;;12.10;98.70;;;;;;5073410;28;19967;-65
2021/07/18 12:19:47;;;;;;;;;;;12.00;98.70;;;;;;5073542;28;19916;-65
2021/07/18 12:22:15;;;;;;;;;;;12.00;98.90;;;;;;5073551;28;19908;-64
2021/07/18 12:24:43;;;;;;;;;;;12.00;98.40;;;;;;5073396;28;19915;-64
2021/07/18 12:27:10;;;;;;;;;;;12.00;98.00;;;;;;5073481;28;20369;-64
2021/07/18 12:29:43;;;;;;;;;;;11.90;98.10;;;;;;5072598;28;20429;-65
2021/07/18 12:32:10;;;;;;;;;;;11.90;98.90;;;;;;5073675;28;19908;-64
2021/07/18 12:34:38;;;;;;;;;;;11.90;99.50;;;;;;5073411;28;19924;-64
2021/07/18 12:37:09;;;;;;;;;;;11.90;98.10;;;;;;5073208;28;19991;-64
2021/07/18 12:39:41;;;;;;;;;;;11.90;98.40;;;;;;5072973;28;20399;-64
2021/07/18 12:42:10;;;;;;;;;;;11.80;98.10;;;;;;5073356;28;19908;-64
2021/07/18 12:44:44;;;;;;;;;;;11.70;98.70;;;;;;5072750;28;19920;-64
2021/07/18 12:47:16;;;;;;;;;;;11.70;98.00;;;;;;5073300;28;19908;-65
2021/07/18 12:49:43;;;;;;;;;;;11.70;98.80;;;;;;5072914;28;20316;-65
2021/07/18 12:52:10;;;;;;;;;;;11.70;98.70;;;;;;5073112;28;19961;-64
2021/07/18 12:54:38;;;;;;;;;;;11.70;98.10;;;;;;5072664;28;19951;-65
2021/07/18 12:57:05;;;;;;;;;;;11.70;98.10;;;;;;5072623;28;19970;-64
2021/07/18 12:59:32;;;;;;;;;;;11.70;98.60;;;;;;5072417;28;19958;-65
2021/07/18 13:02:12;;;;;;;;;;;11.70;98.10;;;;;;5072690;28;19912;-64
2021/07/18 13:04:39;;;;;;;;;;;11.70;97.90;;;;;;5072792;28;19909;-64
2021/07/18 13:07:11;;;;;;;;;;;11.70;98.30;;;;;;5071538;28;19919;-64
2021/07/18 13:09:39;;;;;;;;;;;11.70;97.50;;;;;;5072504;28;19913;-64
2021/07/18 13:12:06;;;;;;;;;;;11.70;98.00;;;;;;5072736;28;19946;-64
2021/07/18 13:14:39;;;;;;;;;;;11.70;97.90;;;;;;5072393;28;19921;-64
2021/07/18 13:17:10;;;;;;;;;;;11.70;97.70;;;;;;5072418;28;19913;-64
2021/07/18 13:19:42;;;;;;;;;;;11.60;97.50;;;;;;5072246;28;19908;-64
2021/07/18 13:22:10;;;;;;;;;;;11.60;97.40;;;;;;5072527;28;19912;-64
2021/07/18 13:24:40;;;;;;;;;;;11.60;97.80;;;;;;5072550;28;20282;-64
2021/07/18 13:27:14;;;;;;;;;;;11.60;97.00;;;;;;5072446;28;20253;-64
2021/07/18 13:29:42;;;;;;;;;;;11.60;97.20;;;;;;5071965;28;20365;-64
2021/07/18 13:32:10;;;;;;;;;;;11.60;97.30;;;;;;5072392;28;19914;-64
2021/07/18 13:34:37;;;;;;;;;;;11.60;98.10;;;;;;5072312;28;19916;-64
2021/07/18 13:37:05;;;;;;;;;;;11.60;97.70;;;;;;5072459;28;19908;-64
2021/07/18 13:39:33;;;;;;;;;;;11.60;97.70;;;;;;5072267;28;19991;-64
2021/07/18 13:42:12;;;;;;;;;;;11.60;97.30;;;;;;5071800;28;19908;-64
2021/07/18 13:44:39;;;;;;;;;;;11.60;97.70;;;;;;5071997;28;20007;-65
2021/07/18 13:47:07;;;;;;;;;;;11.60;97.90;;;;;;5072198;28;19913;-64
2021/07/18 13:49:34;;;;;;;;;;;11.50;97.80;;;;;;5072065;28;19991;-64
2021/07/18 13:52:01;;;;;;;;;;;11.50;98.00;;;;;;5071867;28;19908;-64
2021/07/18 13:54:28;;;;;;;;;;;11.50;97.60;;;;;;5071847;28;19952;-64
2021/07/18 13:56:55;;;;;;;;;;;11.40;97.60;;;;;;5072297;28;19908;-64
2021/07/18 13:59:22;;;;;;;;;;;11.40;97.90;;;;;;5072334;28;19915;-64
2021/07/18 14:01:48;;;;;;;;;;;11.40;97.90;;;;;;5071899;28;20355;-64
2021/07/18 14:04:15;;;;;;;;;;;11.40;98.40;;;;;;5072119;28;19954;-64
2021/07/18 14:06:42;;;;;;;;;;;11.40;97.40;;;;;;5071968;28;19954;-64
2021/07/18 14:09:08;;;;;;;;;;;11.40;97.50;;;;;;5072120;28;19978;-64
2021/07/18 14:11:35;;;;;;;;;;;11.30;97.40;;;;;;5071922;28;19915;-64
2021/07/18 14:14:02;;;;;;;;;;;11.30;97.50;;;;;;5071878;28;19920;-65
2021/07/18 14:16:28;;;;;;;;;;;11.30;97.60;;;;;;5072319;28;20435;-64
2021/07/18 14:18:55;;;;;;;;;;;11.30;97.80;;;;;;5072023;28;19915;-64